Terminal Aerodrome Forecast
Issued by NWS Bismarck, ND

Home | Current Version | Previous Version | Text Only | Print | Product List | Glossary Off
Versions: 1 2 3 4 5 6 7 8 9 10 11 12 13 14 15 16 17 18 19 20

000
FTUS43 KBIS 261000 AAA
TAFISN
TAF AMD
KISN 261011Z 2610/2706 28019G26KT P6SM SCT100
     FM261700 30024G34KT P6SM VCSH SCT035 BKN050
     FM270100 33010KT P6SM BKN050=

USA.gov is the U.S. government's official web portal to all federal, state and local government web resources and services.